Tyndall Air Force Base
KPAM : now visible

Airfield :











YOU CAN JOIN US ON...

 
LOGIN :

Register | Disclaimer

   EN    FR    IT 

 









Legend :    VFR   Marginal VFR   IFR   Intensive IFR   Very Intensive IFR
Visi :
Ceiling :
>= 8 km
>= 3000ft
5 to 8 km
1000 to 3000 ft
1500m to 5 km
500 to 1000 ft
800 to 1500m
200 to 500 ft
< 800m
< 200 ft
Symbols :   Thunderstorms  Fog  Heavy snow  Heavy precipitations  Wind > 20 kt






- Airport Elevation : 17 ft


KPAM - Tyndall Air Force Base

CURRENT METAR :
  • 141055Z AUTO 06006KT 10SM CLR 24/22 A2990 RMK AO2 SLP128 T02420215 $

EXPIRED METARs :
  • 140955Z AUTO 07005KT 10SM CLR 25/21 A2989 RMK AO2 SLP125 T02480213 $
  • 140855Z AUTO 04006KT 10SM CLR 26/22 A2988 RMK AO2 SLP121 T02560219 53000 $
  • 140755Z AUTO 01003KT 10SM CLR 26/24 A2987 RMK AO2 SLP118 T02550241 $

TAF TAF KPAM
Valid from the 14 at 11:00 until the 15 at 17:00 UTC


141100Z 1411/1517 VRB06KT 9999 FEW050 QNH2989INS
BECMG 1416/1417 23012G18KT 9999 SKC QNH2989INS
BECMG 1419/1420 03009KT 9999 FEW060 QNH2985INS TX34/1418Z TN24/1411Z
KZJX FIR / North America



MET'MAP, your aeronautical weather chart ! - Copyright ORBIFLY December 2007 - Disclaimer

ORBIFLY MET'MAP TEAM :

Programming & Development : Alexandra Zaïnal
Original concept : Baudouin d'Aumeries
Technical & hardware support : Manuel Goepfert
Assistance : Marc-Olivier Méhu




SOURCES & CREDITS :

   NOAA       Earth
Advisory